sensor_id;sensor_type;location;lat;lon;timestamp;P1;durP1;ratioP1;P2;durP2;ratioP2
45322;SDS011;31382;50.200;8.674;2023-11-22T00:00:13;10.48;;;1.20;;
45322;SDS011;31382;50.200;8.674;2023-11-22T00:05:15;3.72;;;1.33;;
45322;SDS011;31382;50.200;8.674;2023-11-22T00:10:17;1.90;;;1.23;;
45322;SDS011;31382;50.200;8.674;2023-11-22T00:15:19;2.05;;;1.25;;
45322;SDS011;31382;50.200;8.674;2023-11-22T00:20:22;4.22;;;1.45;;
45322;SDS011;31382;50.200;8.674;2023-11-22T00:25:23;2.75;;;1.40;;
45322;SDS011;31382;50.200;8.674;2023-11-22T00:30:26;2.50;;;1.30;;
45322;SDS011;31382;50.200;8.674;2023-11-22T00:35:27;4.03;;;1.73;;
45322;SDS011;31382;50.200;8.674;2023-11-22T00:40:29;7.20;;;2.28;;
45322;SDS011;31382;50.200;8.674;2023-11-22T00:45:30;3.30;;;1.52;;
45322;SDS011;31382;50.200;8.674;2023-11-22T00:50:32;4.00;;;1.67;;
45322;SDS011;31382;50.200;8.674;2023-11-22T00:55:33;5.47;;;2.03;;
45322;SDS011;31382;50.200;8.674;2023-11-22T01:00:35;6.53;;;2.70;;
45322;SDS011;31382;50.200;8.674;2023-11-22T01:05:36;3.22;;;1.73;;
45322;SDS011;31382;50.200;8.674;2023-11-22T01:10:38;4.20;;;1.92;;
45322;SDS011;31382;50.200;8.674;2023-11-22T01:15:40;4.10;;;1.83;;
45322;SDS011;31382;50.200;8.674;2023-11-22T01:20:42;3.15;;;1.90;;
45322;SDS011;31382;50.200;8.674;2023-11-22T01:25:44;5.55;;;2.17;;
45322;SDS011;31382;50.200;8.674;2023-11-22T01:30:45;3.88;;;1.60;;
45322;SDS011;31382;50.200;8.674;2023-11-22T01:35:47;8.65;;;1.50;;
45322;SDS011;31382;50.200;8.674;2023-11-22T01:40:51;3.10;;;1.67;;
45322;SDS011;31382;50.200;8.674;2023-11-22T01:45:54;11.32;;;2.22;;
45322;SDS011;31382;50.200;8.674;2023-11-22T01:50:56;3.22;;;1.55;;
45322;SDS011;31382;50.200;8.674;2023-11-22T01:55:57;3.40;;;1.70;;
45322;SDS011;31382;50.200;8.674;2023-11-22T02:00:59;2.97;;;1.27;;
45322;SDS011;31382;50.200;8.674;2023-11-22T02:06:02;4.07;;;1.50;;
45322;SDS011;31382;50.200;8.674;2023-11-22T02:11:04;3.80;;;1.50;;
45322;SDS011;31382;50.200;8.674;2023-11-22T02:16:05;3.85;;;1.92;;
45322;SDS011;31382;50.200;8.674;2023-11-22T02:21:07;3.83;;;1.95;;
45322;SDS011;31382;50.200;8.674;2023-11-22T02:26:08;3.50;;;1.48;;
45322;SDS011;31382;50.200;8.674;2023-11-22T02:31:10;2.78;;;1.30;;
45322;SDS011;31382;50.200;8.674;2023-11-22T02:36:11;2.55;;;1.17;;
45322;SDS011;31382;50.200;8.674;2023-11-22T02:41:16;5.63;;;1.75;;
45322;SDS011;31382;50.200;8.674;2023-11-22T02:46:17;4.43;;;1.38;;
45322;SDS011;31382;50.200;8.674;2023-11-22T02:51:19;4.78;;;2.10;;
45322;SDS011;31382;50.200;8.674;2023-11-22T02:56:22;5.25;;;1.58;;
45322;SDS011;31382;50.200;8.674;2023-11-22T03:01:24;5.75;;;1.38;;
45322;SDS011;31382;50.200;8.674;2023-11-22T03:06:27;3.13;;;1.73;;
45322;SDS011;31382;50.200;8.674;2023-11-22T03:11:29;6.60;;;2.03;;
45322;SDS011;31382;50.200;8.674;2023-11-22T03:16:30;2.55;;;1.20;;
45322;SDS011;31382;50.200;8.674;2023-11-22T03:21:32;3.90;;;1.58;;
45322;SDS011;31382;50.200;8.674;2023-11-22T03:26:33;4.25;;;1.88;;
45322;SDS011;31382;50.200;8.674;2023-11-22T03:31:35;3.75;;;1.52;;
45322;SDS011;31382;50.200;8.674;2023-11-22T03:36:37;3.10;;;1.58;;
45322;SDS011;31382;50.200;8.674;2023-11-22T03:41:38;5.47;;;1.52;;
45322;SDS011;31382;50.200;8.674;2023-11-22T03:46:39;2.40;;;1.45;;
45322;SDS011;31382;50.200;8.674;2023-11-22T03:51:42;5.65;;;1.35;;
45322;SDS011;31382;50.200;8.674;2023-11-22T03:56:44;2.08;;;0.93;;
45322;SDS011;31382;50.200;8.674;2023-11-22T04:01:45;3.20;;;1.42;;
45322;SDS011;31382;50.200;8.674;2023-11-22T04:06:47;3.53;;;1.13;;
45322;SDS011;31382;50.200;8.674;2023-11-22T04:11:48;3.85;;;1.13;;
45322;SDS011;31382;50.200;8.674;2023-11-22T04:16:50;2.47;;;1.17;;
45322;SDS011;31382;50.200;8.674;2023-11-22T04:21:52;2.33;;;1.20;;
45322;SDS011;31382;50.200;8.674;2023-11-22T04:26:55;4.82;;;1.23;;
45322;SDS011;31382;50.200;8.674;2023-11-22T04:31:56;2.78;;;1.10;;
45322;SDS011;31382;50.200;8.674;2023-11-22T04:36:58;6.90;;;1.50;;
45322;SDS011;31382;50.200;8.674;2023-11-22T04:41:59;2.55;;;1.05;;
45322;SDS011;31382;50.200;8.674;2023-11-22T04:47:01;3.03;;;1.10;;
45322;SDS011;31382;50.200;8.674;2023-11-22T04:52:03;7.55;;;1.63;;
45322;SDS011;31382;50.200;8.674;2023-11-22T04:57:05;4.35;;;1.42;;
45322;SDS011;31382;50.200;8.674;2023-11-22T05:02:06;3.65;;;1.58;;
45322;SDS011;31382;50.200;8.674;2023-11-22T05:07:08;1.60;;;0.93;;
45322;SDS011;31382;50.200;8.674;2023-11-22T05:12:10;3.50;;;1.33;;
45322;SDS011;31382;50.200;8.674;2023-11-22T05:17:12;3.63;;;1.70;;
45322;SDS011;31382;50.200;8.674;2023-11-22T05:22:14;4.22;;;1.88;;
45322;SDS011;31382;50.200;8.674;2023-11-22T05:27:15;3.47;;;1.55;;
45322;SDS011;31382;50.200;8.674;2023-11-22T05:32:17;3.30;;;1.35;;
45322;SDS011;31382;50.200;8.674;2023-11-22T05:37:18;8.65;;;1.98;;
45322;SDS011;31382;50.200;8.674;2023-11-22T05:42:20;5.03;;;2.42;;
45322;SDS011;31382;50.200;8.674;2023-11-22T05:47:21;7.82;;;2.60;;
45322;SDS011;31382;50.200;8.674;2023-11-22T05:52:23;4.20;;;1.50;;
45322;SDS011;31382;50.200;8.674;2023-11-22T05:57:24;6.32;;;1.92;;
45322;SDS011;31382;50.200;8.674;2023-11-22T06:02:26;6.97;;;2.38;;
45322;SDS011;31382;50.200;8.674;2023-11-22T06:07:27;5.20;;;2.05;;
45322;SDS011;31382;50.200;8.674;2023-11-22T06:12:29;7.35;;;1.95;;
45322;SDS011;31382;50.200;8.674;2023-11-22T06:17:30;7.75;;;2.88;;
45322;SDS011;31382;50.200;8.674;2023-11-22T06:22:32;8.25;;;2.75;;
45322;SDS011;31382;50.200;8.674;2023-11-22T06:27:33;4.95;;;1.80;;
45322;SDS011;31382;50.200;8.674;2023-11-22T06:32:35;5.70;;;1.42;;
45322;SDS011;31382;50.200;8.674;2023-11-22T06:37:36;4.72;;;1.63;;
45322;SDS011;31382;50.200;8.674;2023-11-22T06:42:41;2.80;;;1.38;;
45322;SDS011;31382;50.200;8.674;2023-11-22T06:47:43;9.38;;;2.05;;
45322;SDS011;31382;50.200;8.674;2023-11-22T06:52:46;4.57;;;1.80;;
45322;SDS011;31382;50.200;8.674;2023-11-22T06:57:51;6.18;;;2.30;;
45322;SDS011;31382;50.200;8.674;2023-11-22T07:02:52;7.15;;;2.17;;
45322;SDS011;31382;50.200;8.674;2023-11-22T07:07:53;3.67;;;1.35;;
45322;SDS011;31382;50.200;8.674;2023-11-22T07:12:56;3.45;;;1.52;;
45322;SDS011;31382;50.200;8.674;2023-11-22T07:17:58;5.30;;;2.28;;
45322;SDS011;31382;50.200;8.674;2023-11-22T07:23:00;2.50;;;1.20;;
45322;SDS011;31382;50.200;8.674;2023-11-22T07:28:01;3.03;;;1.25;;
45322;SDS011;31382;50.200;8.674;2023-11-22T07:33:03;4.20;;;2.70;;
45322;SDS011;31382;50.200;8.674;2023-11-22T07:38:04;6.03;;;1.50;;
45322;SDS011;31382;50.200;8.674;2023-11-22T07:43:06;3.20;;;1.30;;
45322;SDS011;31382;50.200;8.674;2023-11-22T07:48:10;3.53;;;0.95;;
45322;SDS011;31382;50.200;8.674;2023-11-22T07:53:12;3.33;;;1.13;;
45322;SDS011;31382;50.200;8.674;2023-11-22T07:58:15;2.80;;;1.00;;
45322;SDS011;31382;50.200;8.674;2023-11-22T08:03:17;3.05;;;1.45;;
45322;SDS011;31382;50.200;8.674;2023-11-22T08:08:24;4.50;;;1.50;;
45322;SDS011;31382;50.200;8.674;2023-11-22T08:13:27;4.03;;;1.63;;
45322;SDS011;31382;50.200;8.674;2023-11-22T08:18:29;2.70;;;1.13;;
45322;SDS011;31382;50.200;8.674;2023-11-22T08:23:31;4.88;;;1.08;;
45322;SDS011;31382;50.200;8.674;2023-11-22T08:28:33;3.03;;;1.73;;
45322;SDS011;31382;50.200;8.674;2023-11-22T08:33:36;2.70;;;1.55;;
45322;SDS011;31382;50.200;8.674;2023-11-22T08:38:38;4.15;;;1.42;;
45322;SDS011;31382;50.200;8.674;2023-11-22T08:43:44;3.13;;;1.60;;
45322;SDS011;31382;50.200;8.674;2023-11-22T08:48:49;2.65;;;1.27;;
45322;SDS011;31382;50.200;8.674;2023-11-22T08:53:52;3.97;;;1.45;;
45322;SDS011;31382;50.200;8.674;2023-11-22T08:58:53;3.65;;;1.27;;
45322;SDS011;31382;50.200;8.674;2023-11-22T09:03:55;2.47;;;1.38;;
45322;SDS011;31382;50.200;8.674;2023-11-22T09:08:58;5.40;;;1.90;;
45322;SDS011;31382;50.200;8.674;2023-11-22T09:14:00;4.40;;;0.98;;
45322;SDS011;31382;50.200;8.674;2023-11-22T09:19:05;2.13;;;0.95;;
45322;SDS011;31382;50.200;8.674;2023-11-22T09:24:07;3.17;;;1.10;;
45322;SDS011;31382;50.200;8.674;2023-11-22T09:29:09;3.20;;;0.90;;
45322;SDS011;31382;50.200;8.674;2023-11-22T09:34:15;1.95;;;1.00;;
45322;SDS011;31382;50.200;8.674;2023-11-22T09:39:16;2.88;;;1.15;;
45322;SDS011;31382;50.200;8.674;2023-11-22T09:44:22;6.03;;;1.23;;
45322;SDS011;31382;50.200;8.674;2023-11-22T09:49:24;3.08;;;0.75;;
45322;SDS011;31382;50.200;8.674;2023-11-22T09:54:27;2.38;;;0.95;;
45322;SDS011;31382;50.200;8.674;2023-11-22T09:59:30;2.67;;;0.93;;
45322;SDS011;31382;50.200;8.674;2023-11-22T10:04:33;4.65;;;1.08;;
45322;SDS011;31382;50.200;8.674;2023-11-22T10:09:35;2.08;;;0.90;;
45322;SDS011;31382;50.200;8.674;2023-11-22T10:14:38;4.05;;;1.15;;
45322;SDS011;31382;50.200;8.674;2023-11-22T10:19:40;3.38;;;0.85;;
45322;SDS011;31382;50.200;8.674;2023-11-22T10:24:42;3.13;;;0.85;;
45322;SDS011;31382;50.200;8.674;2023-11-22T10:29:45;1.77;;;0.80;;
45322;SDS011;31382;50.200;8.674;2023-11-22T10:34:48;1.52;;;0.85;;
45322;SDS011;31382;50.200;8.674;2023-11-22T10:39:51;2.60;;;1.33;;
45322;SDS011;31382;50.200;8.674;2023-11-22T10:44:55;3.17;;;1.23;;
45322;SDS011;31382;50.200;8.674;2023-11-22T10:49:58;1.83;;;0.90;;
45322;SDS011;31382;50.200;8.674;2023-11-22T10:55:03;2.00;;;0.95;;
45322;SDS011;31382;50.200;8.674;2023-11-22T11:00:07;4.03;;;1.52;;
45322;SDS011;31382;50.200;8.674;2023-11-22T11:05:16;2.22;;;1.08;;
45322;SDS011;31382;50.200;8.674;2023-11-22T11:10:22;3.58;;;0.60;;
45322;SDS011;31382;50.200;8.674;2023-11-22T11:15:25;3.00;;;1.17;;
45322;SDS011;31382;50.200;8.674;2023-11-22T11:25:53;2.45;;;1.25;;
45322;SDS011;31382;50.200;8.674;2023-11-22T11:30:56;2.08;;;1.10;;
45322;SDS011;31382;50.200;8.674;2023-11-22T11:35:58;1.55;;;0.90;;
45322;SDS011;31382;50.200;8.674;2023-11-22T11:41:11;3.13;;;0.98;;
45322;SDS011;31382;50.200;8.674;2023-11-22T11:46:14;1.70;;;0.70;;
45322;SDS011;31382;50.200;8.674;2023-11-22T11:51:17;1.85;;;0.85;;
45322;SDS011;31382;50.200;8.674;2023-11-22T11:56:20;6.72;;;3.50;;
45322;SDS011;31382;50.200;8.674;2023-11-22T12:01:22;9.02;;;3.58;;
45322;SDS011;31382;50.200;8.674;2023-11-22T12:06:24;5.30;;;2.80;;
45322;SDS011;31382;50.200;8.674;2023-11-22T12:11:25;4.53;;;1.85;;
45322;SDS011;31382;50.200;8.674;2023-11-22T12:16:27;5.13;;;2.30;;
45322;SDS011;31382;50.200;8.674;2023-11-22T12:21:29;2.88;;;1.33;;
45322;SDS011;31382;50.200;8.674;2023-11-22T12:26:32;3.72;;;1.52;;
45322;SDS011;31382;50.200;8.674;2023-11-22T12:31:35;2.97;;;1.35;;
45322;SDS011;31382;50.200;8.674;2023-11-22T12:36:38;1.92;;;0.82;;
45322;SDS011;31382;50.200;8.674;2023-11-22T12:41:42;2.65;;;0.88;;
45322;SDS011;31382;50.200;8.674;2023-11-22T12:47:02;3.00;;;1.00;;
45322;SDS011;31382;50.200;8.674;2023-11-22T12:52:12;3.72;;;0.88;;
45322;SDS011;31382;50.200;8.674;2023-11-22T12:57:15;1.10;;;0.68;;
45322;SDS011;31382;50.200;8.674;2023-11-22T13:02:20;2.92;;;0.90;;
45322;SDS011;31382;50.200;8.674;2023-11-22T13:07:22;3.80;;;1.25;;
45322;SDS011;31382;50.200;8.674;2023-11-22T13:12:24;4.65;;;1.05;;
45322;SDS011;31382;50.200;8.674;2023-11-22T13:17:25;4.35;;;1.30;;
45322;SDS011;31382;50.200;8.674;2023-11-22T13:22:27;2.35;;;1.20;;
45322;SDS011;31382;50.200;8.674;2023-11-22T13:27:28;2.80;;;1.02;;
45322;SDS011;31382;50.200;8.674;2023-11-22T13:32:31;3.65;;;1.05;;
45322;SDS011;31382;50.200;8.674;2023-11-22T13:37:33;2.38;;;1.17;;
45322;SDS011;31382;50.200;8.674;2023-11-22T13:42:36;4.07;;;1.40;;
45322;SDS011;31382;50.200;8.674;2023-11-22T13:47:38;6.30;;;2.60;;
45322;SDS011;31382;50.200;8.674;2023-11-22T13:52:40;4.30;;;1.92;;
45322;SDS011;31382;50.200;8.674;2023-11-22T13:57:42;4.28;;;0.93;;
45322;SDS011;31382;50.200;8.674;2023-11-22T14:02:50;3.78;;;0.88;;
45322;SDS011;31382;50.200;8.674;2023-11-22T14:07:54;2.88;;;1.90;;
45322;SDS011;31382;50.200;8.674;2023-11-22T14:12:55;4.90;;;0.90;;
45322;SDS011;31382;50.200;8.674;2023-11-22T14:18:01;2.50;;;1.20;;
45322;SDS011;31382;50.200;8.674;2023-11-22T14:23:04;2.00;;;0.80;;
45322;SDS011;31382;50.200;8.674;2023-11-22T14:28:06;5.72;;;1.40;;
45322;SDS011;31382;50.200;8.674;2023-11-22T14:33:07;2.55;;;1.05;;
45322;SDS011;31382;50.200;8.674;2023-11-22T14:38:11;2.67;;;1.10;;
45322;SDS011;31382;50.200;8.674;2023-11-22T14:43:14;1.65;;;0.77;;
45322;SDS011;31382;50.200;8.674;2023-11-22T14:48:15;3.65;;;1.10;;
45322;SDS011;31382;50.200;8.674;2023-11-22T14:53:19;5.28;;;1.38;;
45322;SDS011;31382;50.200;8.674;2023-11-22T14:58:20;3.60;;;1.40;;
45322;SDS011;31382;50.200;8.674;2023-11-22T15:03:22;4.45;;;1.52;;
45322;SDS011;31382;50.200;8.674;2023-11-22T15:08:24;3.15;;;1.08;;
45322;SDS011;31382;50.200;8.674;2023-11-22T15:13:29;6.13;;;2.75;;
45322;SDS011;31382;50.200;8.674;2023-11-22T15:18:31;5.05;;;1.63;;
45322;SDS011;31382;50.200;8.674;2023-11-22T15:23:32;3.33;;;1.17;;
45322;SDS011;31382;50.200;8.674;2023-11-22T15:28:34;3.60;;;1.33;;
45322;SDS011;31382;50.200;8.674;2023-11-22T15:33:37;3.85;;;1.55;;
45322;SDS011;31382;50.200;8.674;2023-11-22T15:38:38;4.75;;;1.63;;
45322;SDS011;31382;50.200;8.674;2023-11-22T15:43:40;5.07;;;1.65;;
45322;SDS011;31382;50.200;8.674;2023-11-22T15:48:43;7.43;;;2.08;;
45322;SDS011;31382;50.200;8.674;2023-11-22T15:53:45;5.22;;;2.33;;
45322;SDS011;31382;50.200;8.674;2023-11-22T15:58:47;5.88;;;1.65;;
45322;SDS011;31382;50.200;8.674;2023-11-22T16:03:48;9.82;;;3.28;;
45322;SDS011;31382;50.200;8.674;2023-11-22T16:08:50;7.07;;;2.58;;
45322;SDS011;31382;50.200;8.674;2023-11-22T16:13:51;6.15;;;2.53;;
45322;SDS011;31382;50.200;8.674;2023-11-22T16:18:53;6.32;;;2.00;;
45322;SDS011;31382;50.200;8.674;2023-11-22T16:23:55;5.80;;;3.00;;
45322;SDS011;31382;50.200;8.674;2023-11-22T16:28:56;15.07;;;6.65;;
45322;SDS011;31382;50.200;8.674;2023-11-22T16:33:59;9.25;;;4.28;;
45322;SDS011;31382;50.200;8.674;2023-11-22T16:39:00;8.15;;;3.67;;
45322;SDS011;31382;50.200;8.674;2023-11-22T16:44:05;3.90;;;1.33;;
45322;SDS011;31382;50.200;8.674;2023-11-22T16:49:07;4.28;;;1.90;;
45322;SDS011;31382;50.200;8.674;2023-11-22T16:54:10;2.97;;;1.13;;
45322;SDS011;31382;50.200;8.674;2023-11-22T16:59:11;5.50;;;1.65;;
45322;SDS011;31382;50.200;8.674;2023-11-22T17:04:13;5.75;;;2.10;;
45322;SDS011;31382;50.200;8.674;2023-11-22T17:09:15;5.07;;;2.60;;
45322;SDS011;31382;50.200;8.674;2023-11-22T17:14:19;5.68;;;2.30;;
45322;SDS011;31382;50.200;8.674;2023-11-22T17:19:20;4.70;;;2.20;;
45322;SDS011;31382;50.200;8.674;2023-11-22T17:24:21;5.30;;;1.90;;
45322;SDS011;31382;50.200;8.674;2023-11-22T17:29:23;6.15;;;2.38;;
45322;SDS011;31382;50.200;8.674;2023-11-22T17:34:25;5.07;;;2.58;;
45322;SDS011;31382;50.200;8.674;2023-11-22T17:39:27;7.05;;;2.92;;
45322;SDS011;31382;50.200;8.674;2023-11-22T17:44:29;8.50;;;2.90;;
45322;SDS011;31382;50.200;8.674;2023-11-22T17:49:30;6.53;;;3.60;;
45322;SDS011;31382;50.200;8.674;2023-11-22T17:54:32;11.82;;;3.63;;
45322;SDS011;31382;50.200;8.674;2023-11-22T17:59:34;6.15;;;3.05;;
45322;SDS011;31382;50.200;8.674;2023-11-22T18:04:36;13.00;;;4.25;;
45322;SDS011;31382;50.200;8.674;2023-11-22T18:09:37;15.10;;;4.43;;
45322;SDS011;31382;50.200;8.674;2023-11-22T18:14:39;8.25;;;3.53;;
45322;SDS011;31382;50.200;8.674;2023-11-22T18:19:40;4.90;;;3.03;;
45322;SDS011;31382;50.200;8.674;2023-11-22T18:24:42;6.30;;;3.03;;
45322;SDS011;31382;50.200;8.674;2023-11-22T18:29:43;6.53;;;2.72;;
45322;SDS011;31382;50.200;8.674;2023-11-22T18:34:45;4.55;;;2.55;;
45322;SDS011;31382;50.200;8.674;2023-11-22T18:39:46;9.02;;;3.70;;
45322;SDS011;31382;50.200;8.674;2023-11-22T18:44:48;10.02;;;3.53;;
45322;SDS011;31382;50.200;8.674;2023-11-22T18:49:50;6.07;;;2.60;;
45322;SDS011;31382;50.200;8.674;2023-11-22T18:54:51;6.75;;;3.58;;
45322;SDS011;31382;50.200;8.674;2023-11-22T18:59:56;8.40;;;3.95;;
45322;SDS011;31382;50.200;8.674;2023-11-22T19:04:57;5.72;;;3.17;;
45322;SDS011;31382;50.200;8.674;2023-11-22T19:09:59;5.97;;;2.40;;
45322;SDS011;31382;50.200;8.674;2023-11-22T19:15:01;7.22;;;3.15;;
45322;SDS011;31382;50.200;8.674;2023-11-22T19:20:03;5.85;;;3.22;;
45322;SDS011;31382;50.200;8.674;2023-11-22T19:25:07;7.10;;;2.88;;
45322;SDS011;31382;50.200;8.674;2023-11-22T19:30:13;6.20;;;3.50;;
45322;SDS011;31382;50.200;8.674;2023-11-22T19:35:15;7.72;;;2.80;;
45322;SDS011;31382;50.200;8.674;2023-11-22T19:40:17;6.30;;;2.92;;
45322;SDS011;31382;50.200;8.674;2023-11-22T19:45:19;6.78;;;3.72;;
45322;SDS011;31382;50.200;8.674;2023-11-22T19:50:20;9.02;;;3.03;;
45322;SDS011;31382;50.200;8.674;2023-11-22T19:55:23;7.28;;;3.45;;
45322;SDS011;31382;50.200;8.674;2023-11-22T20:00:25;7.10;;;3.15;;
45322;SDS011;31382;50.200;8.674;2023-11-22T20:05:27;13.38;;;4.47;;
45322;SDS011;31382;50.200;8.674;2023-11-22T20:10:28;6.95;;;3.78;;
45322;SDS011;31382;50.200;8.674;2023-11-22T20:15:30;8.95;;;4.78;;
45322;SDS011;31382;50.200;8.674;2023-11-22T20:20:32;9.63;;;3.55;;
45322;SDS011;31382;50.200;8.674;2023-11-22T20:25:35;11.60;;;4.72;;
45322;SDS011;31382;50.200;8.674;2023-11-22T20:30:36;7.63;;;3.25;;
45322;SDS011;31382;50.200;8.674;2023-11-22T20:35:38;11.35;;;3.67;;
45322;SDS011;31382;50.200;8.674;2023-11-22T20:40:44;8.35;;;3.40;;
45322;SDS011;31382;50.200;8.674;2023-11-22T20:45:46;9.68;;;3.65;;
45322;SDS011;31382;50.200;8.674;2023-11-22T20:50:48;10.68;;;3.25;;
45322;SDS011;31382;50.200;8.674;2023-11-22T20:55:49;10.23;;;3.90;;
45322;SDS011;31382;50.200;8.674;2023-11-22T21:00:51;7.78;;;4.18;;
45322;SDS011;31382;50.200;8.674;2023-11-22T21:05:52;9.57;;;3.33;;
45322;SDS011;31382;50.200;8.674;2023-11-22T21:10:54;6.15;;;3.38;;
45322;SDS011;31382;50.200;8.674;2023-11-22T21:15:55;7.72;;;3.92;;
45322;SDS011;31382;50.200;8.674;2023-11-22T21:20:57;6.45;;;3.08;;
45322;SDS011;31382;50.200;8.674;2023-11-22T21:26:00;8.13;;;3.67;;
45322;SDS011;31382;50.200;8.674;2023-11-22T21:31:02;7.70;;;3.45;;
45322;SDS011;31382;50.200;8.674;2023-11-22T21:36:04;10.70;;;4.05;;
45322;SDS011;31382;50.200;8.674;2023-11-22T21:41:11;7.50;;;3.85;;
45322;SDS011;31382;50.200;8.674;2023-11-22T21:46:15;8.35;;;3.72;;
45322;SDS011;31382;50.200;8.674;2023-11-22T21:51:27;7.90;;;3.65;;
45322;SDS011;31382;50.200;8.674;2023-11-22T21:56:29;10.05;;;4.55;;
45322;SDS011;31382;50.200;8.674;2023-11-22T22:01:35;9.30;;;4.45;;
45322;SDS011;31382;50.200;8.674;2023-11-22T22:06:38;8.95;;;4.15;;
45322;SDS011;31382;50.200;8.674;2023-11-22T22:11:40;7.28;;;3.22;;
45322;SDS011;31382;50.200;8.674;2023-11-22T22:16:42;7.82;;;3.72;;
45322;SDS011;31382;50.200;8.674;2023-11-22T22:21:44;9.48;;;5.10;;
45322;SDS011;31382;50.200;8.674;2023-11-22T22:26:46;8.45;;;4.15;;
45322;SDS011;31382;50.200;8.674;2023-11-22T22:31:48;7.45;;;3.83;;
45322;SDS011;31382;50.200;8.674;2023-11-22T22:36:50;11.70;;;5.35;;
45322;SDS011;31382;50.200;8.674;2023-11-22T22:41:52;11.40;;;3.95;;
45322;SDS011;31382;50.200;8.674;2023-11-22T22:46:54;11.43;;;4.15;;
45322;SDS011;31382;50.200;8.674;2023-11-22T22:51:56;9.60;;;3.80;;
45322;SDS011;31382;50.200;8.674;2023-11-22T22:57:10;10.20;;;4.88;;
45322;SDS011;31382;50.200;8.674;2023-11-22T23:02:12;8.63;;;3.70;;
45322;SDS011;31382;50.200;8.674;2023-11-22T23:07:13;9.52;;;4.43;;
45322;SDS011;31382;50.200;8.674;2023-11-22T23:12:15;10.65;;;4.53;;
45322;SDS011;31382;50.200;8.674;2023-11-22T23:17:16;10.18;;;4.78;;
45322;SDS011;31382;50.200;8.674;2023-11-22T23:22:18;8.40;;;4.18;;
45322;SDS011;31382;50.200;8.674;2023-11-22T23:27:19;7.10;;;3.60;;
45322;SDS011;31382;50.200;8.674;2023-11-22T23:32:21;9.93;;;4.47;;
45322;SDS011;31382;50.200;8.674;2023-11-22T23:37:22;7.38;;;3.65;;
45322;SDS011;31382;50.200;8.674;2023-11-22T23:42:24;6.65;;;3.13;;
45322;SDS011;31382;50.200;8.674;2023-11-22T23:47:26;15.45;;;4.15;;
45322;SDS011;31382;50.200;8.674;2023-11-22T23:52:27;6.70;;;3.75;;
45322;SDS011;31382;50.200;8.674;2023-11-22T23:57:29;6.00;;;3.25;;
